Woods, Kentucky
Current Conditions -  °F | °C
As of 1:15 AM on Saturday 29 Nov 2014 (Local Time) from KI35 Reporting Station
Clear Clear  
Wind Chill: -2°   Ceiling: Unl
Heat Index:   Visibility: 10mi
Dew Point: -8°   Wind: 6mph
Humidity: 52%   Direction: 90°E
Pressure: 30.16"   Gusts: NA
Location:  36.8509°N, 83.1611°W
Report Text: KI35 290615Z AUTO 09005KT 10SM CLR 01/M08 A3016 RMK AO1
Loading
Personal Weather Stations






























Interactive Weather Map New forecast layout! Learn more

10-Day Weather Forecast

Advertisements
Track Severe Weather on mobile